sensor_id;sensor_type;location;lat;lon;timestamp;P1;durP1;ratioP1;P2;durP2;ratioP2
20669;SDS011;10494;50.868;4.180;2022-08-19T00:01:51;28.67;;;22.23;;
20669;SDS011;10494;50.868;4.180;2022-08-19T00:04:23;31.88;;;23.45;;
20669;SDS011;10494;50.868;4.180;2022-08-19T00:06:52;30.77;;;22.60;;
20669;SDS011;10494;50.868;4.180;2022-08-19T00:09:18;31.20;;;24.48;;
20669;SDS011;10494;50.868;4.180;2022-08-19T00:11:46;34.08;;;24.17;;
20669;SDS011;10494;50.868;4.180;2022-08-19T00:14:13;36.85;;;24.58;;
20669;SDS011;10494;50.868;4.180;2022-08-19T00:16:41;35.70;;;24.35;;
20669;SDS011;10494;50.868;4.180;2022-08-19T00:19:08;37.25;;;24.98;;
20669;SDS011;10494;50.868;4.180;2022-08-19T00:21:34;34.70;;;24.33;;
20669;SDS011;10494;50.868;4.180;2022-08-19T00:24:04;36.05;;;25.95;;
20669;SDS011;10494;50.868;4.180;2022-08-19T00:26:31;36.83;;;25.45;;
20669;SDS011;10494;50.868;4.180;2022-08-19T00:28:56;34.88;;;25.13;;
20669;SDS011;10494;50.868;4.180;2022-08-19T00:31:22;31.17;;;23.30;;
20669;SDS011;10494;50.868;4.180;2022-08-19T00:33:48;37.45;;;27.27;;
20669;SDS011;10494;50.868;4.180;2022-08-19T00:36:16;35.72;;;25.98;;
20669;SDS011;10494;50.868;4.180;2022-08-19T00:38:42;42.05;;;28.05;;
20669;SDS011;10494;50.868;4.180;2022-08-19T00:41:09;46.50;;;30.67;;
20669;SDS011;10494;50.868;4.180;2022-08-19T00:43:37;50.58;;;31.63;;
20669;SDS011;10494;50.868;4.180;2022-08-19T00:46:03;41.53;;;28.65;;
20669;SDS011;10494;50.868;4.180;2022-08-19T00:48:30;52.00;;;32.33;;
20669;SDS011;10494;50.868;4.180;2022-08-19T00:50:57;46.45;;;31.45;;
20669;SDS011;10494;50.868;4.180;2022-08-19T00:53:24;44.10;;;30.17;;
20669;SDS011;10494;50.868;4.180;2022-08-19T00:55:53;42.85;;;28.50;;
20669;SDS011;10494;50.868;4.180;2022-08-19T00:58:22;57.85;;;30.27;;
20669;SDS011;10494;50.868;4.180;2022-08-19T01:00:52;42.08;;;29.13;;
20669;SDS011;10494;50.868;4.180;2022-08-19T01:03:19;49.08;;;31.17;;
20669;SDS011;10494;50.868;4.180;2022-08-19T01:05:46;58.53;;;35.30;;
20669;SDS011;10494;50.868;4.180;2022-08-19T01:08:13;46.75;;;31.85;;
20669;SDS011;10494;50.868;4.180;2022-08-19T01:10:43;45.08;;;31.27;;
20669;SDS011;10494;50.868;4.180;2022-08-19T01:13:14;45.35;;;31.65;;
20669;SDS011;10494;50.868;4.180;2022-08-19T01:15:46;43.72;;;31.08;;
20669;SDS011;10494;50.868;4.180;2022-08-19T01:18:19;53.15;;;32.75;;
20669;SDS011;10494;50.868;4.180;2022-08-19T01:20:45;57.72;;;35.10;;
20669;SDS011;10494;50.868;4.180;2022-08-19T01:23:11;49.50;;;32.88;;
20669;SDS011;10494;50.868;4.180;2022-08-19T01:25:42;50.65;;;32.33;;
20669;SDS011;10494;50.868;4.180;2022-08-19T01:28:18;46.53;;;32.00;;
20669;SDS011;10494;50.868;4.180;2022-08-19T01:30:46;52.60;;;33.83;;
20669;SDS011;10494;50.868;4.180;2022-08-19T01:33:12;50.25;;;32.08;;
20669;SDS011;10494;50.868;4.180;2022-08-19T01:35:38;42.60;;;29.55;;
20669;SDS011;10494;50.868;4.180;2022-08-19T01:38:06;50.33;;;31.55;;
20669;SDS011;10494;50.868;4.180;2022-08-19T01:40:33;48.17;;;30.83;;
20669;SDS011;10494;50.868;4.180;2022-08-19T01:43:02;45.15;;;30.10;;
20669;SDS011;10494;50.868;4.180;2022-08-19T01:45:28;41.75;;;27.48;;
20669;SDS011;10494;50.868;4.180;2022-08-19T01:47:56;47.20;;;29.88;;
20669;SDS011;10494;50.868;4.180;2022-08-19T01:50:22;39.58;;;26.25;;
20669;SDS011;10494;50.868;4.180;2022-08-19T01:52:48;41.05;;;28.10;;
20669;SDS011;10494;50.868;4.180;2022-08-19T01:55:15;37.38;;;26.02;;
20669;SDS011;10494;50.868;4.180;2022-08-19T01:57:44;37.72;;;27.10;;
20669;SDS011;10494;50.868;4.180;2022-08-19T02:00:14;40.67;;;27.08;;
20669;SDS011;10494;50.868;4.180;2022-08-19T02:02:42;36.42;;;25.85;;
20669;SDS011;10494;50.868;4.180;2022-08-19T02:05:08;33.75;;;23.35;;
20669;SDS011;10494;50.868;4.180;2022-08-19T02:07:35;39.75;;;27.48;;
20669;SDS011;10494;50.868;4.180;2022-08-19T02:10:02;37.80;;;26.05;;
20669;SDS011;10494;50.868;4.180;2022-08-19T02:12:29;42.13;;;28.90;;
20669;SDS011;10494;50.868;4.180;2022-08-19T02:14:55;42.70;;;28.25;;
20669;SDS011;10494;50.868;4.180;2022-08-19T02:17:20;39.92;;;27.30;;
20669;SDS011;10494;50.868;4.180;2022-08-19T02:19:46;44.00;;;27.13;;
20669;SDS011;10494;50.868;4.180;2022-08-19T02:22:13;41.70;;;27.60;;
20669;SDS011;10494;50.868;4.180;2022-08-19T02:24:39;35.53;;;25.17;;
20669;SDS011;10494;50.868;4.180;2022-08-19T02:27:05;35.35;;;24.67;;
20669;SDS011;10494;50.868;4.180;2022-08-19T02:29:30;40.50;;;25.08;;
20669;SDS011;10494;50.868;4.180;2022-08-19T02:31:56;36.13;;;25.65;;
20669;SDS011;10494;50.868;4.180;2022-08-19T02:34:23;39.97;;;26.23;;
20669;SDS011;10494;50.868;4.180;2022-08-19T02:36:50;41.67;;;27.27;;
20669;SDS011;10494;50.868;4.180;2022-08-19T02:39:16;39.90;;;25.88;;
20669;SDS011;10494;50.868;4.180;2022-08-19T02:41:41;41.80;;;27.50;;
20669;SDS011;10494;50.868;4.180;2022-08-19T02:44:07;37.80;;;25.45;;
20669;SDS011;10494;50.868;4.180;2022-08-19T02:46:33;40.47;;;26.63;;
20669;SDS011;10494;50.868;4.180;2022-08-19T02:49:03;42.13;;;26.02;;
20669;SDS011;10494;50.868;4.180;2022-08-19T02:51:35;41.92;;;26.58;;
20669;SDS011;10494;50.868;4.180;2022-08-19T02:54:03;40.17;;;25.85;;
20669;SDS011;10494;50.868;4.180;2022-08-19T02:56:30;38.20;;;25.02;;
20669;SDS011;10494;50.868;4.180;2022-08-19T02:58:55;48.53;;;27.77;;
20669;SDS011;10494;50.868;4.180;2022-08-19T03:01:28;41.35;;;25.42;;
20669;SDS011;10494;50.868;4.180;2022-08-19T03:03:56;40.97;;;25.35;;
20669;SDS011;10494;50.868;4.180;2022-08-19T03:06:26;40.92;;;24.98;;
20669;SDS011;10494;50.868;4.180;2022-08-19T03:08:52;34.97;;;24.55;;
20669;SDS011;10494;50.868;4.180;2022-08-19T03:11:22;35.25;;;23.13;;
20669;SDS011;10494;50.868;4.180;2022-08-19T03:13:50;33.50;;;22.33;;
20669;SDS011;10494;50.868;4.180;2022-08-19T03:16:19;39.83;;;23.80;;
20669;SDS011;10494;50.868;4.180;2022-08-19T03:18:46;37.08;;;24.45;;
20669;SDS011;10494;50.868;4.180;2022-08-19T03:21:20;40.22;;;24.75;;
20669;SDS011;10494;50.868;4.180;2022-08-19T03:23:48;35.90;;;23.48;;
20669;SDS011;10494;50.868;4.180;2022-08-19T03:26:14;42.20;;;24.27;;
20669;SDS011;10494;50.868;4.180;2022-08-19T03:28:41;37.05;;;22.73;;
20669;SDS011;10494;50.868;4.180;2022-08-19T03:31:10;38.95;;;23.92;;
20669;SDS011;10494;50.868;4.180;2022-08-19T03:33:37;34.88;;;22.02;;
20669;SDS011;10494;50.868;4.180;2022-08-19T03:36:08;37.50;;;22.60;;
20669;SDS011;10494;50.868;4.180;2022-08-19T03:38:42;36.08;;;21.50;;
20669;SDS011;10494;50.868;4.180;2022-08-19T03:41:11;35.95;;;22.05;;
20669;SDS011;10494;50.868;4.180;2022-08-19T03:43:40;34.70;;;21.45;;
20669;SDS011;10494;50.868;4.180;2022-08-19T03:46:07;35.08;;;22.00;;
20669;SDS011;10494;50.868;4.180;2022-08-19T03:48:39;34.40;;;20.60;;
20669;SDS011;10494;50.868;4.180;2022-08-19T03:51:06;32.42;;;20.95;;
20669;SDS011;10494;50.868;4.180;2022-08-19T03:53:33;38.20;;;22.15;;
20669;SDS011;10494;50.868;4.180;2022-08-19T03:56:00;33.03;;;20.67;;
20669;SDS011;10494;50.868;4.180;2022-08-19T03:58:27;34.35;;;19.33;;
20669;SDS011;10494;50.868;4.180;2022-08-19T04:00:54;32.13;;;19.42;;
20669;SDS011;10494;50.868;4.180;2022-08-19T04:03:21;29.95;;;19.20;;
20669;SDS011;10494;50.868;4.180;2022-08-19T04:05:47;32.33;;;18.42;;
20669;SDS011;10494;50.868;4.180;2022-08-19T04:08:13;33.30;;;20.05;;
20669;SDS011;10494;50.868;4.180;2022-08-19T04:10:45;35.58;;;20.88;;
20669;SDS011;10494;50.868;4.180;2022-08-19T04:13:11;36.85;;;20.80;;
20669;SDS011;10494;50.868;4.180;2022-08-19T04:15:40;34.63;;;19.88;;
20669;SDS011;10494;50.868;4.180;2022-08-19T04:18:08;34.33;;;21.15;;
20669;SDS011;10494;50.868;4.180;2022-08-19T04:20:44;38.65;;;20.48;;
20669;SDS011;10494;50.868;4.180;2022-08-19T04:23:12;34.85;;;20.33;;
20669;SDS011;10494;50.868;4.180;2022-08-19T04:25:40;34.97;;;19.65;;
20669;SDS011;10494;50.868;4.180;2022-08-19T04:28:08;37.35;;;20.55;;
20669;SDS011;10494;50.868;4.180;2022-08-19T04:30:53;36.83;;;19.95;;
20669;SDS011;10494;50.868;4.180;2022-08-19T04:33:21;35.25;;;19.60;;
20669;SDS011;10494;50.868;4.180;2022-08-19T04:35:49;34.10;;;19.15;;
20669;SDS011;10494;50.868;4.180;2022-08-19T04:38:16;38.03;;;18.42;;
20669;SDS011;10494;50.868;4.180;2022-08-19T04:40:44;32.35;;;19.60;;
20669;SDS011;10494;50.868;4.180;2022-08-19T04:43:31;35.30;;;19.92;;
20669;SDS011;10494;50.868;4.180;2022-08-19T04:45:57;34.88;;;20.20;;
20669;SDS011;10494;50.868;4.180;2022-08-19T04:48:23;39.85;;;20.88;;
20669;SDS011;10494;50.868;4.180;2022-08-19T04:50:53;33.67;;;19.30;;
20669;SDS011;10494;50.868;4.180;2022-08-19T04:53:23;33.55;;;18.67;;
20669;SDS011;10494;50.868;4.180;2022-08-19T04:55:51;34.10;;;19.65;;
20669;SDS011;10494;50.868;4.180;2022-08-19T04:58:17;38.15;;;19.65;;
20669;SDS011;10494;50.868;4.180;2022-08-19T05:00:43;33.40;;;19.20;;
20669;SDS011;10494;50.868;4.180;2022-08-19T05:03:08;34.25;;;19.33;;
20669;SDS011;10494;50.868;4.180;2022-08-19T05:05:39;31.17;;;17.88;;
20669;SDS011;10494;50.868;4.180;2022-08-19T05:08:06;31.67;;;18.08;;
20669;SDS011;10494;50.868;4.180;2022-08-19T05:10:34;38.22;;;18.02;;
20669;SDS011;10494;50.868;4.180;2022-08-19T05:13:01;34.45;;;17.65;;
20669;SDS011;10494;50.868;4.180;2022-08-19T05:15:27;36.15;;;19.05;;
20669;SDS011;10494;50.868;4.180;2022-08-19T05:17:53;30.08;;;16.75;;
20669;SDS011;10494;50.868;4.180;2022-08-19T05:20:38;30.13;;;16.20;;
20669;SDS011;10494;50.868;4.180;2022-08-19T05:23:22;27.58;;;16.45;;
20669;SDS011;10494;50.868;4.180;2022-08-19T05:25:47;27.88;;;16.15;;
20669;SDS011;10494;50.868;4.180;2022-08-19T05:28:13;32.83;;;17.17;;
20669;SDS011;10494;50.868;4.180;2022-08-19T05:30:39;32.17;;;17.48;;
20669;SDS011;10494;50.868;4.180;2022-08-19T05:33:05;32.28;;;16.83;;
20669;SDS011;10494;50.868;4.180;2022-08-19T05:35:35;30.15;;;17.00;;
20669;SDS011;10494;50.868;4.180;2022-08-19T05:38:02;32.85;;;17.98;;
20669;SDS011;10494;50.868;4.180;2022-08-19T05:40:28;39.17;;;20.38;;
20669;SDS011;10494;50.868;4.180;2022-08-19T05:42:54;27.55;;;18.20;;
20669;SDS011;10494;50.868;4.180;2022-08-19T05:45:19;30.33;;;18.80;;
20669;SDS011;10494;50.868;4.180;2022-08-19T05:47:46;29.45;;;17.58;;
20669;SDS011;10494;50.868;4.180;2022-08-19T05:50:13;32.65;;;17.33;;
20669;SDS011;10494;50.868;4.180;2022-08-19T05:52:38;32.17;;;18.10;;
20669;SDS011;10494;50.868;4.180;2022-08-19T05:55:04;29.25;;;16.95;;
20669;SDS011;10494;50.868;4.180;2022-08-19T05:57:31;30.35;;;16.10;;
20669;SDS011;10494;50.868;4.180;2022-08-19T05:59:57;24.85;;;15.70;;
20669;SDS011;10494;50.868;4.180;2022-08-19T06:02:29;27.60;;;16.20;;
20669;SDS011;10494;50.868;4.180;2022-08-19T06:04:55;24.88;;;15.98;;
20669;SDS011;10494;50.868;4.180;2022-08-19T06:07:21;24.30;;;14.27;;
20669;SDS011;10494;50.868;4.180;2022-08-19T06:09:47;25.67;;;15.68;;
20669;SDS011;10494;50.868;4.180;2022-08-19T06:12:12;24.02;;;15.15;;
20669;SDS011;10494;50.868;4.180;2022-08-19T06:14:38;24.45;;;14.02;;
20669;SDS011;10494;50.868;4.180;2022-08-19T06:17:03;28.08;;;14.18;;
20669;SDS011;10494;50.868;4.180;2022-08-19T06:19:29;23.63;;;14.73;;
20669;SDS011;10494;50.868;4.180;2022-08-19T06:21:56;27.58;;;14.18;;
20669;SDS011;10494;50.868;4.180;2022-08-19T06:24:25;22.30;;;14.02;;
20669;SDS011;10494;50.868;4.180;2022-08-19T06:26:52;25.48;;;13.02;;
20669;SDS011;10494;50.868;4.180;2022-08-19T06:29:20;24.40;;;14.25;;
20669;SDS011;10494;50.868;4.180;2022-08-19T06:31:48;20.45;;;13.77;;
20669;SDS011;10494;50.868;4.180;2022-08-19T06:34:15;20.05;;;11.93;;
20669;SDS011;10494;50.868;4.180;2022-08-19T06:36:43;19.23;;;12.30;;
20669;SDS011;10494;50.868;4.180;2022-08-19T06:39:12;17.38;;;11.25;;
20669;SDS011;10494;50.868;4.180;2022-08-19T06:41:50;24.05;;;11.48;;
20669;SDS011;10494;50.868;4.180;2022-08-19T06:44:18;21.35;;;13.02;;
20669;SDS011;10494;50.868;4.180;2022-08-19T06:46:45;18.35;;;10.50;;
20669;SDS011;10494;50.868;4.180;2022-08-19T06:49:11;18.60;;;10.88;;
20669;SDS011;10494;50.868;4.180;2022-08-19T06:51:39;21.30;;;11.52;;
20669;SDS011;10494;50.868;4.180;2022-08-19T06:54:13;17.50;;;10.13;;
20669;SDS011;10494;50.868;4.180;2022-08-19T06:56:39;20.50;;;10.27;;
20669;SDS011;10494;50.868;4.180;2022-08-19T06:59:15;14.00;;;9.93;;
20669;SDS011;10494;50.868;4.180;2022-08-19T07:01:44;20.10;;;10.40;;
20669;SDS011;10494;50.868;4.180;2022-08-19T07:04:13;19.27;;;9.30;;
20669;SDS011;10494;50.868;4.180;2022-08-19T07:06:40;13.18;;;8.80;;
20669;SDS011;10494;50.868;4.180;2022-08-19T07:09:07;11.27;;;8.15;;
20669;SDS011;10494;50.868;4.180;2022-08-19T07:11:33;15.23;;;8.65;;
20669;SDS011;10494;50.868;4.180;2022-08-19T07:13:59;19.15;;;9.18;;
20669;SDS011;10494;50.868;4.180;2022-08-19T07:16:26;14.00;;;7.93;;
20669;SDS011;10494;50.868;4.180;2022-08-19T07:18:52;14.43;;;8.57;;
20669;SDS011;10494;50.868;4.180;2022-08-19T07:21:20;14.90;;;8.18;;
20669;SDS011;10494;50.868;4.180;2022-08-19T07:23:48;19.35;;;8.80;;
20669;SDS011;10494;50.868;4.180;2022-08-19T07:26:19;12.82;;;7.32;;
20669;SDS011;10494;50.868;4.180;2022-08-19T07:28:47;22.10;;;7.35;;
20669;SDS011;10494;50.868;4.180;2022-08-19T07:31:14;13.90;;;7.18;;
20669;SDS011;10494;50.868;4.180;2022-08-19T07:33:45;10.70;;;6.43;;
20669;SDS011;10494;50.868;4.180;2022-08-19T07:36:13;15.57;;;7.30;;
20669;SDS011;10494;50.868;4.180;2022-08-19T07:38:42;11.50;;;6.97;;
20669;SDS011;10494;50.868;4.180;2022-08-19T07:41:10;13.35;;;6.65;;
20669;SDS011;10494;50.868;4.180;2022-08-19T07:43:38;13.40;;;6.88;;
20669;SDS011;10494;50.868;4.180;2022-08-19T07:46:04;13.70;;;6.78;;
20669;SDS011;10494;50.868;4.180;2022-08-19T07:48:31;13.38;;;7.40;;
20669;SDS011;10494;50.868;4.180;2022-08-19T07:50:59;11.55;;;7.18;;
20669;SDS011;10494;50.868;4.180;2022-08-19T07:53:27;15.40;;;7.07;;
20669;SDS011;10494;50.868;4.180;2022-08-19T07:55:54;17.73;;;8.25;;
20669;SDS011;10494;50.868;4.180;2022-08-19T07:58:21;12.40;;;7.40;;
20669;SDS011;10494;50.868;4.180;2022-08-19T08:00:48;13.43;;;7.28;;
20669;SDS011;10494;50.868;4.180;2022-08-19T08:03:16;13.70;;;6.97;;
20669;SDS011;10494;50.868;4.180;2022-08-19T08:05:43;11.50;;;6.82;;
20669;SDS011;10494;50.868;4.180;2022-08-19T08:08:28;11.38;;;6.68;;
20669;SDS011;10494;50.868;4.180;2022-08-19T08:11:13;12.55;;;6.75;;
20669;SDS011;10494;50.868;4.180;2022-08-19T08:13:43;11.63;;;6.63;;
20669;SDS011;10494;50.868;4.180;2022-08-19T08:16:08;13.20;;;6.75;;
20669;SDS011;10494;50.868;4.180;2022-08-19T08:18:34;10.95;;;6.22;;
20669;SDS011;10494;50.868;4.180;2022-08-19T08:21:06;11.35;;;6.32;;
20669;SDS011;10494;50.868;4.180;2022-08-19T08:23:32;11.40;;;6.45;;
20669;SDS011;10494;50.868;4.180;2022-08-19T08:25:58;11.10;;;6.20;;
20669;SDS011;10494;50.868;4.180;2022-08-19T08:28:25;11.95;;;6.82;;
20669;SDS011;10494;50.868;4.180;2022-08-19T08:30:52;10.43;;;6.25;;
20669;SDS011;10494;50.868;4.180;2022-08-19T08:33:20;13.13;;;6.57;;
20669;SDS011;10494;50.868;4.180;2022-08-19T08:35:47;12.68;;;5.95;;
20669;SDS011;10494;50.868;4.180;2022-08-19T08:38:13;11.85;;;6.32;;
20669;SDS011;10494;50.868;4.180;2022-08-19T08:40:42;12.38;;;6.78;;
20669;SDS011;10494;50.868;4.180;2022-08-19T08:45:42;16.77;;;6.57;;
20669;SDS011;10494;50.868;4.180;2022-08-19T08:48:19;10.27;;;6.00;;
20669;SDS011;10494;50.868;4.180;2022-08-19T08:50:49;13.88;;;6.45;;
20669;SDS011;10494;50.868;4.180;2022-08-19T08:53:19;12.13;;;6.10;;
20669;SDS011;10494;50.868;4.180;2022-08-19T08:55:46;11.15;;;6.78;;
20669;SDS011;10494;50.868;4.180;2022-08-19T08:58:29;15.20;;;6.65;;
20669;SDS011;10494;50.868;4.180;2022-08-19T09:01:07;9.10;;;5.25;;
20669;SDS011;10494;50.868;4.180;2022-08-19T09:03:36;10.73;;;5.75;;
20669;SDS011;10494;50.868;4.180;2022-08-19T09:06:06;10.60;;;5.80;;
20669;SDS011;10494;50.868;4.180;2022-08-19T09:11:18;8.82;;;5.10;;
20669;SDS011;10494;50.868;4.180;2022-08-19T09:14:07;9.85;;;5.82;;
20669;SDS011;10494;50.868;4.180;2022-08-19T09:16:41;11.38;;;5.47;;
20669;SDS011;10494;50.868;4.180;2022-08-19T09:19:07;7.07;;;5.18;;
20669;SDS011;10494;50.868;4.180;2022-08-19T09:21:33;7.88;;;4.80;;
20669;SDS011;10494;50.868;4.180;2022-08-19T09:24:00;8.18;;;5.15;;
20669;SDS011;10494;50.868;4.180;2022-08-19T09:26:26;9.00;;;4.80;;
20669;SDS011;10494;50.868;4.180;2022-08-19T09:28:52;9.43;;;4.78;;
20669;SDS011;10494;50.868;4.180;2022-08-19T09:31:23;12.32;;;4.75;;
20669;SDS011;10494;50.868;4.180;2022-08-19T09:33:50;8.93;;;5.28;;
20669;SDS011;10494;50.868;4.180;2022-08-19T09:36:17;9.15;;;5.40;;
20669;SDS011;10494;50.868;4.180;2022-08-19T09:38:45;9.13;;;5.57;;
20669;SDS011;10494;50.868;4.180;2022-08-19T09:41:15;7.57;;;5.38;;
20669;SDS011;10494;50.868;4.180;2022-08-19T09:43:47;8.13;;;5.32;;
20669;SDS011;10494;50.868;4.180;2022-08-19T09:46:17;10.77;;;5.45;;
20669;SDS011;10494;50.868;4.180;2022-08-19T09:48:44;11.40;;;5.72;;
20669;SDS011;10494;50.868;4.180;2022-08-19T09:51:11;13.68;;;5.80;;
20669;SDS011;10494;50.868;4.180;2022-08-19T09:53:40;9.55;;;6.00;;
20669;SDS011;10494;50.868;4.180;2022-08-19T09:56:08;10.20;;;5.78;;
20669;SDS011;10494;50.868;4.180;2022-08-19T09:58:34;10.13;;;6.03;;
20669;SDS011;10494;50.868;4.180;2022-08-19T10:01:01;8.07;;;5.20;;
20669;SDS011;10494;50.868;4.180;2022-08-19T10:03:27;9.05;;;6.00;;
20669;SDS011;10494;50.868;4.180;2022-08-19T10:05:55;10.55;;;6.50;;
20669;SDS011;10494;50.868;4.180;2022-08-19T10:08:23;8.75;;;5.78;;
20669;SDS011;10494;50.868;4.180;2022-08-19T10:10:52;12.20;;;6.53;;
20669;SDS011;10494;50.868;4.180;2022-08-19T10:13:20;10.98;;;5.97;;
20669;SDS011;10494;50.868;4.180;2022-08-19T10:15:48;14.07;;;6.70;;
20669;SDS011;10494;50.868;4.180;2022-08-19T10:18:18;9.15;;;5.85;;
20669;SDS011;10494;50.868;4.180;2022-08-19T10:20:46;7.75;;;5.75;;
20669;SDS011;10494;50.868;4.180;2022-08-19T10:23:13;8.27;;;5.00;;
20669;SDS011;10494;50.868;4.180;2022-08-19T10:25:40;7.10;;;4.55;;
20669;SDS011;10494;50.868;4.180;2022-08-19T10:28:06;8.75;;;5.10;;
20669;SDS011;10494;50.868;4.180;2022-08-19T10:30:33;5.55;;;4.32;;
20669;SDS011;10494;50.868;4.180;2022-08-19T10:33:00;7.20;;;4.60;;
20669;SDS011;10494;50.868;4.180;2022-08-19T10:35:25;8.80;;;4.28;;
20669;SDS011;10494;50.868;4.180;2022-08-19T10:37:53;8.43;;;3.97;;
20669;SDS011;10494;50.868;4.180;2022-08-19T10:40:18;5.40;;;3.95;;
20669;SDS011;10494;50.868;4.180;2022-08-19T10:42:44;8.40;;;4.13;;
20669;SDS011;10494;50.868;4.180;2022-08-19T10:45:10;5.53;;;4.22;;
20669;SDS011;10494;50.868;4.180;2022-08-19T10:47:36;8.45;;;4.00;;
20669;SDS011;10494;50.868;4.180;2022-08-19T10:50:02;5.57;;;4.47;;
20669;SDS011;10494;50.868;4.180;2022-08-19T10:52:48;10.02;;;4.05;;
20669;SDS011;10494;50.868;4.180;2022-08-19T10:55:14;6.35;;;4.35;;
20669;SDS011;10494;50.868;4.180;2022-08-19T10:57:59;5.38;;;3.90;;
20669;SDS011;10494;50.868;4.180;2022-08-19T11:00:24;6.10;;;3.72;;
20669;SDS011;10494;50.868;4.180;2022-08-19T11:02:51;7.97;;;4.45;;
20669;SDS011;10494;50.868;4.180;2022-08-19T11:05:17;8.43;;;4.40;;
20669;SDS011;10494;50.868;4.180;2022-08-19T11:07:43;6.82;;;4.97;;
20669;SDS011;10494;50.868;4.180;2022-08-19T11:10:10;10.32;;;5.80;;
20669;SDS011;10494;50.868;4.180;2022-08-19T11:12:38;6.28;;;5.53;;
20669;SDS011;10494;50.868;4.180;2022-08-19T11:15:06;12.48;;;5.25;;
20669;SDS011;10494;50.868;4.180;2022-08-19T11:17:33;10.13;;;7.22;;
20669;SDS011;10494;50.868;4.180;2022-08-19T11:20:00;11.95;;;7.53;;
20669;SDS011;10494;50.868;4.180;2022-08-19T11:22:28;9.55;;;8.05;;
20669;SDS011;10494;50.868;4.180;2022-08-19T11:24:53;7.88;;;6.97;;
20669;SDS011;10494;50.868;4.180;2022-08-19T11:27:20;13.73;;;8.00;;
20669;SDS011;10494;50.868;4.180;2022-08-19T11:29:46;10.13;;;7.57;;
20669;SDS011;10494;50.868;4.180;2022-08-19T11:32:11;11.32;;;7.35;;
20669;SDS011;10494;50.868;4.180;2022-08-19T11:34:37;10.40;;;7.30;;
20669;SDS011;10494;50.868;4.180;2022-08-19T11:37:03;10.27;;;6.65;;
20669;SDS011;10494;50.868;4.180;2022-08-19T11:39:31;10.73;;;6.25;;
20669;SDS011;10494;50.868;4.180;2022-08-19T11:41:57;7.65;;;5.80;;
20669;SDS011;10494;50.868;4.180;2022-08-19T11:44:24;8.20;;;6.10;;
20669;SDS011;10494;50.868;4.180;2022-08-19T11:46:51;6.00;;;5.25;;
20669;SDS011;10494;50.868;4.180;2022-08-19T11:49:18;7.25;;;5.38;;
20669;SDS011;10494;50.868;4.180;2022-08-19T11:51:45;6.25;;;5.28;;
20669;SDS011;10494;50.868;4.180;2022-08-19T11:54:12;10.90;;;4.82;;
20669;SDS011;10494;50.868;4.180;2022-08-19T11:56:41;8.20;;;5.03;;
20669;SDS011;10494;50.868;4.180;2022-08-19T11:59:07;8.05;;;4.85;;
20669;SDS011;10494;50.868;4.180;2022-08-19T12:01:32;6.15;;;4.22;;
20669;SDS011;10494;50.868;4.180;2022-08-19T12:03:58;6.47;;;4.50;;
20669;SDS011;10494;50.868;4.180;2022-08-19T12:06:25;5.25;;;3.83;;
20669;SDS011;10494;50.868;4.180;2022-08-19T12:08:54;6.57;;;3.42;;
20669;SDS011;10494;50.868;4.180;2022-08-19T12:11:20;7.57;;;3.22;;
20669;SDS011;10494;50.868;4.180;2022-08-19T12:13:46;5.68;;;3.20;;
20669;SDS011;10494;50.868;4.180;2022-08-19T12:16:17;6.10;;;3.30;;
20669;SDS011;10494;50.868;4.180;2022-08-19T12:18:44;7.07;;;3.00;;
20669;SDS011;10494;50.868;4.180;2022-08-19T12:21:12;7.00;;;3.30;;
20669;SDS011;10494;50.868;4.180;2022-08-19T12:23:42;4.65;;;2.55;;
20669;SDS011;10494;50.868;4.180;2022-08-19T12:26:10;6.90;;;3.10;;
20669;SDS011;10494;50.868;4.180;2022-08-19T12:28:36;3.85;;;2.78;;
20669;SDS011;10494;50.868;4.180;2022-08-19T12:31:02;2.90;;;2.40;;
20669;SDS011;10494;50.868;4.180;2022-08-19T12:33:27;6.72;;;2.90;;
20669;SDS011;10494;50.868;4.180;2022-08-19T12:35:53;3.63;;;2.83;;
20669;SDS011;10494;50.868;4.180;2022-08-19T12:38:20;4.07;;;2.88;;
20669;SDS011;10494;50.868;4.180;2022-08-19T12:40:49;3.60;;;2.72;;
20669;SDS011;10494;50.868;4.180;2022-08-19T12:43:16;3.97;;;2.63;;
20669;SDS011;10494;50.868;4.180;2022-08-19T12:45:43;4.40;;;2.92;;
20669;SDS011;10494;50.868;4.180;2022-08-19T12:48:09;3.85;;;2.53;;
20669;SDS011;10494;50.868;4.180;2022-08-19T12:50:35;2.65;;;2.10;;
20669;SDS011;10494;50.868;4.180;2022-08-19T12:53:04;4.03;;;2.53;;
20669;SDS011;10494;50.868;4.180;2022-08-19T12:55:30;3.92;;;2.63;;
20669;SDS011;10494;50.868;4.180;2022-08-19T12:57:56;3.20;;;2.28;;
20669;SDS011;10494;50.868;4.180;2022-08-19T13:00:22;3.28;;;2.17;;
20669;SDS011;10494;50.868;4.180;2022-08-19T13:02:49;3.78;;;2.15;;
20669;SDS011;10494;50.868;4.180;2022-08-19T13:05:18;2.55;;;1.88;;
20669;SDS011;10494;50.868;4.180;2022-08-19T13:07:47;2.65;;;1.80;;
20669;SDS011;10494;50.868;4.180;2022-08-19T13:10:14;2.17;;;1.70;;
20669;SDS011;10494;50.868;4.180;2022-08-19T13:12:42;3.15;;;1.80;;
20669;SDS011;10494;50.868;4.180;2022-08-19T13:15:09;7.90;;;1.90;;
20669;SDS011;10494;50.868;4.180;2022-08-19T13:17:36;4.82;;;1.70;;
20669;SDS011;10494;50.868;4.180;2022-08-19T13:20:02;1.98;;;1.73;;
20669;SDS011;10494;50.868;4.180;2022-08-19T13:22:29;2.42;;;1.55;;
20669;SDS011;10494;50.868;4.180;2022-08-19T13:24:54;7.07;;;1.70;;
20669;SDS011;10494;50.868;4.180;2022-08-19T13:27:20;3.15;;;1.67;;
20669;SDS011;10494;50.868;4.180;2022-08-19T13:29:45;4.93;;;1.60;;
20669;SDS011;10494;50.868;4.180;2022-08-19T13:32:30;3.10;;;1.40;;
20669;SDS011;10494;50.868;4.180;2022-08-19T13:35:15;4.63;;;1.65;;
20669;SDS011;10494;50.868;4.180;2022-08-19T13:37:41;2.28;;;1.60;;
20669;SDS011;10494;50.868;4.180;2022-08-19T13:40:08;2.40;;;1.60;;
20669;SDS011;10494;50.868;4.180;2022-08-19T13:42:41;5.32;;;2.03;;
20669;SDS011;10494;50.868;4.180;2022-08-19T13:45:08;8.27;;;2.75;;
20669;SDS011;10494;50.868;4.180;2022-08-19T13:47:35;6.82;;;2.78;;
20669;SDS011;10494;50.868;4.180;2022-08-19T13:50:09;9.65;;;2.78;;
20669;SDS011;10494;50.868;4.180;2022-08-19T13:52:36;6.35;;;3.05;;
20669;SDS011;10494;50.868;4.180;2022-08-19T13:55:03;7.93;;;3.28;;
20669;SDS011;10494;50.868;4.180;2022-08-19T13:57:29;5.85;;;3.42;;
20669;SDS011;10494;50.868;4.180;2022-08-19T13:59:55;5.50;;;3.90;;
20669;SDS011;10494;50.868;4.180;2022-08-19T14:02:23;4.55;;;3.40;;
20669;SDS011;10494;50.868;4.180;2022-08-19T14:04:48;6.38;;;3.53;;
20669;SDS011;10494;50.868;4.180;2022-08-19T14:07:14;5.97;;;3.72;;
20669;SDS011;10494;50.868;4.180;2022-08-19T14:09:40;5.70;;;2.95;;
20669;SDS011;10494;50.868;4.180;2022-08-19T14:12:05;5.00;;;3.28;;
20669;SDS011;10494;50.868;4.180;2022-08-19T14:14:31;6.22;;;3.10;;
20669;SDS011;10494;50.868;4.180;2022-08-19T14:16:57;4.97;;;3.35;;
20669;SDS011;10494;50.868;4.180;2022-08-19T14:19:23;6.20;;;3.10;;
20669;SDS011;10494;50.868;4.180;2022-08-19T14:21:48;6.88;;;3.25;;
20669;SDS011;10494;50.868;4.180;2022-08-19T14:24:15;7.03;;;3.08;;
20669;SDS011;10494;50.868;4.180;2022-08-19T14:26:40;3.05;;;2.58;;
20669;SDS011;10494;50.868;4.180;2022-08-19T14:29:06;5.57;;;2.80;;
20669;SDS011;10494;50.868;4.180;2022-08-19T14:31:32;3.08;;;2.72;;
20669;SDS011;10494;50.868;4.180;2022-08-19T14:33:57;4.70;;;3.00;;
20669;SDS011;10494;50.868;4.180;2022-08-19T14:36:23;5.93;;;2.80;;
20669;SDS011;10494;50.868;4.180;2022-08-19T14:38:48;4.30;;;2.75;;
20669;SDS011;10494;50.868;4.180;2022-08-19T14:41:19;3.45;;;3.13;;
20669;SDS011;10494;50.868;4.180;2022-08-19T14:43:47;4.65;;;2.67;;